createdAt,value
2022-12-23T00:00:58.911Z,10.80
2022-12-23T00:03:30.379Z,9.90
2022-12-23T00:06:01.256Z,11.00
2022-12-23T00:08:31.792Z,11.70
2022-12-23T00:11:02.322Z,9.40
2022-12-23T00:13:50.498Z,12.30
2022-12-23T00:16:21.460Z,11.80
2022-12-23T00:18:52.019Z,10.50
2022-12-23T00:21:23.582Z,10.50
2022-12-23T00:23:54.388Z,10.80
2022-12-23T00:26:27.229Z,11.20
2022-12-23T00:28:59.497Z,12.10
2022-12-23T00:33:59.111Z,9.40
2022-12-23T00:36:31.323Z,8.40
2022-12-23T00:39:19.830Z,9.50
2022-12-23T00:42:07.980Z,11.80
2022-12-23T00:44:38.462Z,11.90
2022-12-23T00:47:28.995Z,11.30
2022-12-23T00:49:59.451Z,10.80
2022-12-23T00:52:29.915Z,10.80
2022-12-23T00:55:00.539Z,8.60
2022-12-23T00:57:31.000Z,11.90
2022-12-23T01:00:01.477Z,11.40
2022-12-23T01:02:49.877Z,9.60
2022-12-23T01:05:37.558Z,12.20
2022-12-23T01:08:10.539Z,12.90
2022-12-23T01:10:42.015Z,10.70
2022-12-23T01:13:12.497Z,11.60
2022-12-23T01:15:42.946Z,10.80
2022-12-23T01:18:13.377Z,10.20
2022-12-23T01:20:43.859Z,10.80
2022-12-23T01:23:14.320Z,11.10
2022-12-23T01:25:44.768Z,10.70
2022-12-23T01:28:15.233Z,10.00
2022-12-23T01:30:45.710Z,11.40
2022-12-23T01:33:16.145Z,12.60
2022-12-23T01:35:46.678Z,13.00
2022-12-23T01:38:17.147Z,11.90
2022-12-23T01:40:48.318Z,11.10
2022-12-23T01:43:21.503Z,10.00
2022-12-23T01:45:52.479Z,10.30
2022-12-23T01:48:25.586Z,10.40
2022-12-23T01:51:01.290Z,10.50
2022-12-23T01:53:35.692Z,10.10
2022-12-23T01:56:11.373Z,9.20
2022-12-23T01:58:47.508Z,9.60
2022-12-23T02:01:36.048Z,10.40
2022-12-23T02:04:09.922Z,9.10
2022-12-23T02:07:00.694Z,9.20
2022-12-23T02:09:33.327Z,8.60
2022-12-23T02:12:31.073Z,8.40
2022-12-23T02:15:38.921Z,9.40
2022-12-23T02:18:31.751Z,9.80
2022-12-23T02:21:18.173Z,7.80
2022-12-23T02:24:28.723Z,8.10
2022-12-23T02:27:20.090Z,10.00
2022-12-23T02:32:58.959Z,7.00
2022-12-23T02:35:33.150Z,9.30
2022-12-23T02:38:11.561Z,10.20
2022-12-23T02:40:52.026Z,11.40
2022-12-23T02:43:32.479Z,8.90
2022-12-23T02:46:10.318Z,8.60
2022-12-23T02:48:45.410Z,9.00
2022-12-23T02:51:17.204Z,10.00
2022-12-23T02:53:52.141Z,9.50
2022-12-23T02:56:24.899Z,8.20
2022-12-23T02:59:00.059Z,9.30
2022-12-23T03:01:33.551Z,9.60
2022-12-23T03:04:06.061Z,9.20
2022-12-23T03:06:41.035Z,9.20
2022-12-23T03:09:17.296Z,10.30
2022-12-23T03:11:55.817Z,9.80
2022-12-23T03:14:44.277Z,9.60
2022-12-23T03:17:32.274Z,9.20
2022-12-23T03:20:10.830Z,8.70
2022-12-23T03:22:48.112Z,11.70
2022-12-23T03:25:24.092Z,9.20
2022-12-23T03:28:00.744Z,10.10
2022-12-23T03:30:34.135Z,9.00
2022-12-23T03:33:09.068Z,8.80
2022-12-23T03:35:44.933Z,7.80
2022-12-23T03:38:19.557Z,10.20
2022-12-23T03:40:55.560Z,10.30
2022-12-23T03:43:29.835Z,11.80
2022-12-23T03:46:04.672Z,11.90
2022-12-23T03:48:38.756Z,11.40
2022-12-23T03:51:15.774Z,9.40
2022-12-23T03:53:49.771Z,12.70
2022-12-23T03:56:27.148Z,9.40
2022-12-23T03:59:01.888Z,8.90
2022-12-23T04:01:44.020Z,9.90
2022-12-23T04:04:24.311Z,8.60
2022-12-23T04:07:00.532Z,11.30
2022-12-23T04:09:31.477Z,11.00
2022-12-23T04:12:02.085Z,10.20
2022-12-23T04:14:35.177Z,10.60
2022-12-23T04:17:05.649Z,10.20
2022-12-23T04:19:36.129Z,12.30
2022-12-23T04:22:06.667Z,11.20
2022-12-23T04:24:37.218Z,12.50
2022-12-23T04:27:08.088Z,10.80
2022-12-23T04:29:38.766Z,9.60
2022-12-23T04:32:09.530Z,11.20
2022-12-23T04:34:39.939Z,10.80
2022-12-23T04:37:11.173Z,11.00
2022-12-23T04:39:41.624Z,11.60
2022-12-23T04:42:12.135Z,10.70
2022-12-23T04:44:42.557Z,10.50
2022-12-23T04:47:13.085Z,11.00
2022-12-23T04:49:43.718Z,10.20
2022-12-23T04:52:14.377Z,11.60
2022-12-23T04:54:46.442Z,11.50
2022-12-23T04:59:46.754Z,11.20
2022-12-23T05:02:17.299Z,10.10
2022-12-23T05:04:47.892Z,12.60
2022-12-23T05:07:18.348Z,10.50
2022-12-23T05:09:48.761Z,11.50
2022-12-23T05:12:19.921Z,12.40
2022-12-23T05:14:50.374Z,12.20
2022-12-23T05:17:20.980Z,11.90
2022-12-23T05:19:51.410Z,11.30
2022-12-23T05:22:21.821Z,12.20
2022-12-23T05:24:52.270Z,11.70
2022-12-23T05:27:23.108Z,13.20
2022-12-23T05:29:53.558Z,15.00
2022-12-23T05:32:24.004Z,13.30
2022-12-23T05:34:56.444Z,14.20
2022-12-23T05:37:27.162Z,11.70
2022-12-23T05:39:57.609Z,10.30
2022-12-23T05:42:28.106Z,10.90
2022-12-23T05:44:58.553Z,9.50
2022-12-23T05:47:29.025Z,9.60
2022-12-23T05:49:59.461Z,9.40
2022-12-23T05:52:29.983Z,8.80
2022-12-23T05:55:00.470Z,8.30
2022-12-23T05:57:32.035Z,7.90
2022-12-23T06:00:02.629Z,8.70
2022-12-23T06:02:45.121Z,8.40
2022-12-23T06:05:18.031Z,9.00
2022-12-23T06:07:48.477Z,7.60
2022-12-23T06:10:19.309Z,9.30
2022-12-23T06:12:49.875Z,8.60
2022-12-23T06:15:20.532Z,7.80
2022-12-23T06:17:51.020Z,7.00
2022-12-23T06:20:21.620Z,6.80
2022-12-23T06:22:52.164Z,7.00
2022-12-23T06:25:22.996Z,7.40
2022-12-23T06:27:53.436Z,5.80
2022-12-23T06:30:23.954Z,8.10
2022-12-23T06:32:54.401Z,6.70
2022-12-23T06:35:25.118Z,7.10
2022-12-23T06:37:56.369Z,7.80
2022-12-23T06:40:29.232Z,6.80
2022-12-23T06:42:59.807Z,7.10
2022-12-23T06:45:30.690Z,6.80
2022-12-23T06:48:01.127Z,6.70
2022-12-23T06:50:31.521Z,6.70
2022-12-23T06:53:02.205Z,7.10
2022-12-23T06:55:33.754Z,10.60
2022-12-23T06:58:04.208Z,7.10
2022-12-23T07:00:34.877Z,5.80
2022-12-23T07:03:05.475Z,7.30
2022-12-23T07:05:37.820Z,9.20
2022-12-23T07:08:08.851Z,7.20
2022-12-23T07:10:39.393Z,8.60
2022-12-23T07:13:10.132Z,6.90
2022-12-23T07:15:40.876Z,6.10
2022-12-23T07:18:11.367Z,10.90
2022-12-23T07:20:41.781Z,7.10
2022-12-23T07:23:12.235Z,6.60
2022-12-23T07:25:42.686Z,8.30
2022-12-23T07:28:13.131Z,6.90
2022-12-23T07:30:44.185Z,5.90
2022-12-23T07:33:14.596Z,8.50
2022-12-23T07:35:45.078Z,7.20
2022-12-23T07:38:15.508Z,6.60
2022-12-23T07:40:49.261Z,6.90
2022-12-23T07:43:19.851Z,6.30
2022-12-23T07:45:57.318Z,5.80
2022-12-23T07:48:30.647Z,5.60
2022-12-23T07:51:04.614Z,7.30
2022-12-23T07:53:35.100Z,22.00
2022-12-23T07:56:06.309Z,16.90
2022-12-23T07:58:36.988Z,8.10
2022-12-23T08:01:09.005Z,8.60
2022-12-23T08:03:39.805Z,6.10
2022-12-23T08:06:12.792Z,6.80
2022-12-23T08:08:44.646Z,7.30
2022-12-23T08:11:16.778Z,7.50
2022-12-23T08:16:18.810Z,5.30
2022-12-23T08:18:49.336Z,6.10
2022-12-23T08:21:21.039Z,7.10
2022-12-23T08:23:52.327Z,7.50
2022-12-23T08:26:25.173Z,6.00
2022-12-23T08:28:56.018Z,6.80
2022-12-23T08:31:28.802Z,7.00
2022-12-23T08:34:00.241Z,6.90
2022-12-23T08:36:32.484Z,6.70
2022-12-23T08:41:36.918Z,6.80
2022-12-23T08:44:08.289Z,6.50
2022-12-23T08:46:39.807Z,7.60
2022-12-23T08:49:10.856Z,6.10
2022-12-23T08:51:42.755Z,6.30
2022-12-23T08:54:13.796Z,6.50
2022-12-23T08:56:44.701Z,9.20
2022-12-23T08:59:19.535Z,6.60
2022-12-23T09:01:50.907Z,7.00
2022-12-23T09:04:21.502Z,7.20
2022-12-23T09:06:52.272Z,10.00
2022-12-23T09:09:22.896Z,8.50
2022-12-23T09:11:53.379Z,7.50
2022-12-23T09:14:23.961Z,7.00
2022-12-23T09:16:54.590Z,8.80
2022-12-23T09:19:25.121Z,9.90
2022-12-23T09:21:55.613Z,8.30
2022-12-23T09:24:26.079Z,7.70
2022-12-23T09:26:56.620Z,11.50
2022-12-23T09:29:27.173Z,9.10
2022-12-23T09:31:57.814Z,8.80
2022-12-23T09:34:28.468Z,10.70
2022-12-23T09:36:59.041Z,10.20
2022-12-23T09:39:29.474Z,9.20
2022-12-23T09:42:07.510Z,8.40
2022-12-23T09:44:47.510Z,11.30
2022-12-23T09:47:23.140Z,9.50
2022-12-23T09:49:56.489Z,11.50
2022-12-23T09:52:35.194Z,13.70
2022-12-23T09:55:10.341Z,13.70
2022-12-23T09:57:49.437Z,8.40
2022-12-23T10:00:22.709Z,10.20
2022-12-23T10:03:15.436Z,8.10
2022-12-23T10:05:58.213Z,8.60
2022-12-23T10:08:34.380Z,7.00
2022-12-23T10:11:11.081Z,6.50
2022-12-23T10:13:46.350Z,6.10
2022-12-23T10:16:20.363Z,7.60
2022-12-23T10:18:58.818Z,8.20
2022-12-23T10:21:36.308Z,4.90
2022-12-23T10:24:14.229Z,5.60
2022-12-23T10:26:52.975Z,6.00
2022-12-23T10:29:24.900Z,6.10
2022-12-23T10:32:08.106Z,6.20
2022-12-23T10:34:49.001Z,5.30
2022-12-23T10:37:29.425Z,4.40
2022-12-23T10:40:12.695Z,4.70
2022-12-23T10:42:54.188Z,5.80
2022-12-23T10:45:35.774Z,5.60
2022-12-23T10:48:17.252Z,5.50
2022-12-23T10:50:56.823Z,7.10
2022-12-23T10:53:36.977Z,7.30
2022-12-23T10:56:09.444Z,5.60
2022-12-23T10:58:44.463Z,5.40
2022-12-23T11:01:25.986Z,6.10
2022-12-23T11:04:07.572Z,7.50
2022-12-23T11:06:42.965Z,6.10
2022-12-23T11:09:20.385Z,5.10
2022-12-23T11:12:03.052Z,7.20
2022-12-23T11:14:41.651Z,6.10
2022-12-23T11:17:23.827Z,5.10
2022-12-23T11:20:13.516Z,5.90
2022-12-23T11:22:52.193Z,4.30
2022-12-23T11:25:37.278Z,5.10
2022-12-23T11:30:55.426Z,5.60
2022-12-23T11:33:29.993Z,4.40
2022-12-23T11:36:07.427Z,4.40
2022-12-23T11:38:48.308Z,4.50
2022-12-23T11:41:25.008Z,7.40
2022-12-23T11:44:01.058Z,5.70
2022-12-23T11:46:34.251Z,4.80
2022-12-23T11:49:17.085Z,6.60
2022-12-23T11:51:49.786Z,4.20
2022-12-23T11:54:23.356Z,4.60
2022-12-23T11:56:56.014Z,4.60
2022-12-23T11:59:34.001Z,5.30
2022-12-23T12:02:12.737Z,5.20
2022-12-23T12:04:43.904Z,5.20
2022-12-23T12:07:20.477Z,5.30
2022-12-23T12:09:51.513Z,4.70
2022-12-23T12:12:24.095Z,6.40
2022-12-23T12:14:56.469Z,5.10
2022-12-23T12:17:33.968Z,5.40
2022-12-23T12:20:11.866Z,5.10
2022-12-23T12:22:46.882Z,6.40
2022-12-23T12:25:23.735Z,5.60
2022-12-23T12:28:08.354Z,5.20
2022-12-23T12:30:45.273Z,5.40
2022-12-23T12:33:20.375Z,6.00
2022-12-23T12:36:00.251Z,6.30
2022-12-23T12:38:37.156Z,6.80
2022-12-23T12:41:17.443Z,5.50
2022-12-23T12:44:01.700Z,5.70
2022-12-23T12:46:35.206Z,5.50
2022-12-23T12:49:15.662Z,7.70
2022-12-23T12:51:52.523Z,7.00
2022-12-23T12:54:26.744Z,9.30
2022-12-23T12:56:59.018Z,8.70
2022-12-23T12:59:35.803Z,7.70
2022-12-23T13:02:38.108Z,5.10
2022-12-23T13:05:35.021Z,6.70
2022-12-23T13:08:20.201Z,6.30
2022-12-23T13:10:55.113Z,5.60
2022-12-23T13:13:41.203Z,5.60
2022-12-23T13:16:22.525Z,4.80
2022-12-23T13:19:00.835Z,5.50
2022-12-23T13:21:38.534Z,4.30
2022-12-23T13:24:19.906Z,5.90
2022-12-23T13:27:00.554Z,5.30
2022-12-23T13:29:56.128Z,5.60
2022-12-23T13:32:42.061Z,4.70
2022-12-23T13:35:23.923Z,5.30
2022-12-23T13:38:01.492Z,7.90
2022-12-23T13:40:39.988Z,5.00
2022-12-23T13:45:45.772Z,4.60
2022-12-23T13:48:33.624Z,4.90
2022-12-23T13:51:11.488Z,4.40
2022-12-23T13:54:04.561Z,4.40
2022-12-23T13:56:44.201Z,6.50
2022-12-23T13:59:16.668Z,7.70
2022-12-23T14:01:49.907Z,4.40
2022-12-23T14:04:36.976Z,7.00
2022-12-23T14:07:19.359Z,7.50
2022-12-23T14:09:54.806Z,6.10
2022-12-23T14:12:30.727Z,5.60
2022-12-23T14:15:38.130Z,5.10
2022-12-23T14:18:28.266Z,5.90
2022-12-23T14:21:09.214Z,5.40
2022-12-23T14:23:53.281Z,5.60
2022-12-23T14:26:40.511Z,5.30
2022-12-23T14:29:30.077Z,8.00
2022-12-23T14:32:00.915Z,7.00
2022-12-23T14:34:34.248Z,4.70
2022-12-23T14:37:35.460Z,4.80
2022-12-23T14:40:36.779Z,5.90
2022-12-23T14:43:32.040Z,6.20
2022-12-23T14:46:05.893Z,6.90
2022-12-23T14:55:30.178Z,6.40
2022-12-23T14:58:10.134Z,7.30
2022-12-23T15:00:51.314Z,8.60
2022-12-23T15:03:23.705Z,8.80
2022-12-23T15:06:08.148Z,8.40
2022-12-23T15:08:42.305Z,10.10
2022-12-23T15:11:22.742Z,10.00
2022-12-23T15:13:56.102Z,11.40
2022-12-23T15:16:33.553Z,10.60
2022-12-23T15:19:17.480Z,10.20
2022-12-23T15:21:54.455Z,11.10
2022-12-23T15:24:30.974Z,10.50
2022-12-23T15:27:25.866Z,11.30
2022-12-23T15:29:54.241Z,13.00
2022-12-23T15:32:26.585Z,12.60
2022-12-23T15:35:03.030Z,10.20
2022-12-23T15:37:34.914Z,9.90
2022-12-23T15:40:12.615Z,12.50
2022-12-23T15:42:49.785Z,10.90
2022-12-23T15:45:33.863Z,11.00
2022-12-23T15:48:06.155Z,11.30
2022-12-23T15:50:42.477Z,10.20
2022-12-23T15:53:16.958Z,7.00
2022-12-23T15:55:48.530Z,8.50
2022-12-23T15:58:24.538Z,7.90
2022-12-23T16:00:58.044Z,10.40
2022-12-23T16:03:35.307Z,9.30
2022-12-23T16:06:18.788Z,8.70
2022-12-23T16:08:58.746Z,8.70
2022-12-23T16:11:42.382Z,8.20
2022-12-23T16:14:35.306Z,7.70
2022-12-23T16:17:22.639Z,7.20
2022-12-23T16:19:55.024Z,9.40
2022-12-23T16:22:34.376Z,9.50
2022-12-23T16:25:13.454Z,6.80
2022-12-23T16:27:47.935Z,6.00
2022-12-23T16:30:22.695Z,7.70
2022-12-23T16:32:55.950Z,8.60
2022-12-23T16:35:34.655Z,11.60
2022-12-23T16:38:18.202Z,10.60
2022-12-23T16:40:51.309Z,11.30
2022-12-23T16:43:23.069Z,9.80
2022-12-23T16:45:56.129Z,13.30
2022-12-23T16:48:31.596Z,13.60
2022-12-23T16:51:04.876Z,14.40
2022-12-23T16:53:35.378Z,13.00
2022-12-23T16:56:11.204Z,14.30
2022-12-23T16:58:41.890Z,14.40
2022-12-23T17:01:18.175Z,12.40
2022-12-23T17:03:48.806Z,13.30
2022-12-23T17:06:20.440Z,18.30
2022-12-23T17:08:53.230Z,15.30
2022-12-23T17:11:27.752Z,21.30
2022-12-23T17:14:04.089Z,16.70
2022-12-23T17:16:36.377Z,22.80
2022-12-23T17:19:07.320Z,15.80
2022-12-23T17:21:39.663Z,14.70
2022-12-23T17:24:15.243Z,22.10
2022-12-23T17:26:45.693Z,19.60
2022-12-23T17:29:16.508Z,14.00
2022-12-23T17:31:48.733Z,12.60
2022-12-23T17:34:21.566Z,16.90
2022-12-23T17:36:52.894Z,17.50
2022-12-23T17:39:24.093Z,13.60
2022-12-23T17:41:54.523Z,17.70
2022-12-23T17:44:25.011Z,15.50
2022-12-23T17:46:55.528Z,14.40
2022-12-23T17:49:25.974Z,14.50
2022-12-23T17:51:56.603Z,13.00
2022-12-23T17:54:27.579Z,15.80
2022-12-23T17:56:58.415Z,26.70
2022-12-23T17:59:28.919Z,19.50
2022-12-23T18:01:59.417Z,17.80
2022-12-23T18:04:29.971Z,17.30
2022-12-23T18:07:00.600Z,21.10
2022-12-23T18:09:31.066Z,20.20
2022-12-23T18:12:01.868Z,19.10
2022-12-23T18:14:32.509Z,19.20
2022-12-23T18:17:02.979Z,17.60
2022-12-23T18:19:33.931Z,20.30
2022-12-23T18:22:04.495Z,21.30
2022-12-23T18:24:34.952Z,19.10
2022-12-23T18:27:07.498Z,21.00
2022-12-23T18:29:37.929Z,21.20
2022-12-23T18:32:14.192Z,20.60
2022-12-23T18:34:44.724Z,19.80
2022-12-23T18:37:15.195Z,19.80
2022-12-23T18:39:46.073Z,18.40
2022-12-23T18:42:18.847Z,20.10
2022-12-23T18:44:50.165Z,19.30
2022-12-23T18:47:20.620Z,18.50
2022-12-23T18:49:51.095Z,19.70
2022-12-23T18:52:21.684Z,18.90
2022-12-23T18:54:53.487Z,20.90
2022-12-23T18:57:24.201Z,23.60
2022-12-23T18:59:55.310Z,24.00
2022-12-23T19:02:25.868Z,24.30
2022-12-23T19:04:56.343Z,22.40
2022-12-23T19:07:26.844Z,21.80
2022-12-23T19:09:57.767Z,19.60
2022-12-23T19:12:28.240Z,20.50
2022-12-23T19:14:58.661Z,20.10
2022-12-23T19:17:29.768Z,21.90
2022-12-23T19:20:00.425Z,20.10
2022-12-23T19:22:30.875Z,21.50
2022-12-23T19:25:05.913Z,20.70
2022-12-23T19:27:39.450Z,24.60
2022-12-23T19:30:15.627Z,23.40
2022-12-23T19:32:46.438Z,23.70
2022-12-23T19:35:17.405Z,27.40
2022-12-23T19:37:47.911Z,21.80
2022-12-23T19:40:18.448Z,22.30
2022-12-23T19:42:49.317Z,22.10
2022-12-23T19:45:19.949Z,26.20
2022-12-23T19:47:50.409Z,21.40
2022-12-23T19:50:22.378Z,21.50
2022-12-23T19:52:54.821Z,23.40
2022-12-23T19:55:25.387Z,23.90
2022-12-23T19:57:55.859Z,25.60
2022-12-23T20:00:26.496Z,26.90
2022-12-23T20:02:59.162Z,23.90
2022-12-23T20:05:30.224Z,25.40
2022-12-23T20:08:01.066Z,19.70
2022-12-23T20:10:31.564Z,22.10
2022-12-23T20:13:02.043Z,22.90
2022-12-23T20:15:32.569Z,23.90
2022-12-23T20:18:03.283Z,24.40
2022-12-23T20:20:34.198Z,23.30
2022-12-23T20:23:04.892Z,24.20
2022-12-23T20:25:35.380Z,25.90
2022-12-23T20:28:06.107Z,27.40
2022-12-23T20:30:36.576Z,24.50
2022-12-23T20:33:07.168Z,27.80
2022-12-23T20:35:38.101Z,30.20
2022-12-23T20:38:08.946Z,26.70
2022-12-23T20:40:39.478Z,25.70
2022-12-23T20:43:15.087Z,24.40
2022-12-23T20:45:46.369Z,27.00
2022-12-23T20:48:18.218Z,30.10
2022-12-23T20:50:48.862Z,35.30
2022-12-23T20:53:19.277Z,36.20
2022-12-23T20:55:49.766Z,28.30
2022-12-23T20:58:37.963Z,29.00
2022-12-23T21:01:13.340Z,30.50
2022-12-23T21:03:44.258Z,30.70
2022-12-23T21:06:14.682Z,32.00
2022-12-23T21:08:45.320Z,30.20
2022-12-23T21:11:16.210Z,27.10
2022-12-23T21:13:49.802Z,26.40
2022-12-23T21:16:20.648Z,26.40
2022-12-23T21:18:53.294Z,27.80
2022-12-23T21:21:26.519Z,32.00
2022-12-23T21:24:00.060Z,27.10
2022-12-23T21:26:32.024Z,28.20
2022-12-23T21:29:03.993Z,27.30
2022-12-23T21:31:36.794Z,26.00
2022-12-23T21:34:07.932Z,28.00
2022-12-23T21:36:40.171Z,29.90
2022-12-23T21:39:14.608Z,24.80
2022-12-23T21:41:46.036Z,29.80
2022-12-23T21:44:16.673Z,25.10
2022-12-23T21:46:47.288Z,26.10
2022-12-23T21:49:18.067Z,23.50
2022-12-23T21:51:48.686Z,29.70
2022-12-23T21:54:19.215Z,26.10
2022-12-23T21:56:49.652Z,21.50
2022-12-23T21:59:20.168Z,21.50
2022-12-23T22:01:51.240Z,23.20
2022-12-23T22:04:21.839Z,24.90
2022-12-23T22:06:52.389Z,20.60
2022-12-23T22:09:22.831Z,19.70
2022-12-23T22:11:53.266Z,18.80
2022-12-23T22:14:23.693Z,17.40
2022-12-23T22:16:54.247Z,18.30
2022-12-23T22:19:24.750Z,18.00
2022-12-23T22:21:55.246Z,20.70
2022-12-23T22:24:25.772Z,20.80
2022-12-23T22:26:56.195Z,16.50
2022-12-23T22:29:26.636Z,19.20
2022-12-23T22:31:57.205Z,18.70
2022-12-23T22:34:27.735Z,18.10
2022-12-23T22:36:58.153Z,20.60
2022-12-23T22:39:28.922Z,18.40
2022-12-23T22:41:59.344Z,14.00
2022-12-23T22:44:29.792Z,12.80
2022-12-23T22:47:00.233Z,12.70
2022-12-23T22:49:30.768Z,13.20
2022-12-23T22:52:01.302Z,12.60
2022-12-23T22:54:31.717Z,14.10
2022-12-23T22:57:02.196Z,13.60
2022-12-23T22:59:32.714Z,12.50
2022-12-23T23:02:03.239Z,17.20
2022-12-23T23:04:33.805Z,15.10
2022-12-23T23:07:04.471Z,14.40
2022-12-23T23:09:34.995Z,14.70
2022-12-23T23:12:05.739Z,12.90
2022-12-23T23:14:50.200Z,16.30
2022-12-23T23:17:20.859Z,13.70
2022-12-23T23:19:51.661Z,13.80
2022-12-23T23:22:23.838Z,13.60
2022-12-23T23:27:23.514Z,12.70
2022-12-23T23:29:54.001Z,13.20
2022-12-23T23:32:24.542Z,14.00
2022-12-23T23:34:55.141Z,14.40
2022-12-23T23:37:25.574Z,12.40
2022-12-23T23:39:56.030Z,9.60
2022-12-23T23:42:26.435Z,14.10
2022-12-23T23:44:56.907Z,11.10
2022-12-23T23:47:27.366Z,11.20
2022-12-23T23:49:57.819Z,13.60
2022-12-23T23:52:28.840Z,32.90
2022-12-23T23:54:59.300Z,22.70
2022-12-23T23:57:30.128Z,11.10
